JAL687 RJCC-RJCC
Flight info
| Callsign | JAL687 |
|---|---|
| Flight time | N/A |
| Altitude | 35000 |
| Route | DALBI1 DALBI Y120 RURUD Y125 METEL Y102 SDE Y106 RUBIS Y10 GODIN GODI2K |
| Aircraft | MD11/M-V/N |
Departure
| Time | 2026-05-04 12:23 |
|---|---|
| Airport | New Chitose Airport (RJCC) |
Arrival
| Time | N/A |
|---|---|
| Airport | New Chitose Airport (RJCC) |
| Time | Latitude | Longitude | Altitude | Speed | Heading |
|---|---|---|---|---|---|
| 2026-05-04 12:23 | 42.58633 | 141.60975 | 23289 ft | 290 kts | 220° |
| 2026-05-04 12:23 | 42.57000 | 141.59327 | 23889 ft | 293 kts | 220° |
| 2026-05-04 12:24 | 42.55358 | 141.57659 | 24469 ft | 296 kts | 220° |
| 2026-05-04 12:24 | 42.53685 | 141.56005 | 25033 ft | 299 kts | 219° |
| 2026-05-04 12:24 | 42.51969 | 141.54368 | 25578 ft | 303 kts | 218° |
| 2026-05-04 12:24 | 42.50184 | 141.52820 | 26102 ft | 306 kts | 218° |
| 2026-05-04 12:25 | 42.48570 | 141.51034 | 26614 ft | 303 kts | 230° |
| 2026-05-04 12:25 | 42.47337 | 141.48729 | 27075 ft | 303 kts | 240° |
| 2026-05-04 12:25 | 42.46264 | 141.46255 | 27507 ft | 307 kts | 243° |
| 2026-05-04 12:25 | 42.45219 | 141.43713 | 27950 ft | 310 kts | 243° |
| 2026-05-04 12:26 | 42.44181 | 141.41134 | 28379 ft | 313 kts | 244° |
| 2026-05-04 12:26 | 42.43141 | 141.38520 | 28798 ft | 317 kts | 244° |
| 2026-05-04 12:26 | 42.42100 | 141.35884 | 29202 ft | 320 kts | 244° |
| 2026-05-04 12:26 | 42.41049 | 141.33210 | 29600 ft | 323 kts | 244° |
| 2026-05-04 12:27 | 42.39995 | 141.30509 | 29985 ft | 326 kts | 244° |
| 2026-05-04 12:27 | 42.38938 | 141.27782 | 30360 ft | 329 kts | 244° |
| 2026-05-04 12:27 | 42.37877 | 141.25021 | 30725 ft | 332 kts | 244° |
| 2026-05-04 12:27 | 42.36805 | 141.22241 | 31078 ft | 335 kts | 244° |
| 2026-05-04 12:28 | 42.35680 | 141.19453 | 31424 ft | 338 kts | 243° |
| 2026-05-04 12:28 | 42.34466 | 141.16713 | 31759 ft | 342 kts | 240° |
| 2026-05-04 12:28 | 42.33303 | 141.13907 | 32098 ft | 344 kts | 243° |
| 2026-05-04 12:28 | 42.32082 | 141.11112 | 32420 ft | 347 kts | 242° |
| 2026-05-04 12:29 | 42.30883 | 141.08272 | 32737 ft | 349 kts | 243° |
| 2026-05-04 12:29 | 42.29702 | 141.05390 | 33046 ft | 352 kts | 243° |
| 2026-05-04 12:29 | 42.28531 | 141.02471 | 33352 ft | 354 kts | 243° |
| 2026-05-04 12:29 | 42.27361 | 140.99520 | 33651 ft | 357 kts | 244° |
| 2026-05-04 12:30 | 42.26193 | 140.96543 | 33848 ft | 363 kts | 244° |
| 2026-05-04 12:30 | 42.25005 | 140.93489 | 33936 ft | 372 kts | 244° |
| 2026-05-04 12:30 | 42.22468 | 140.87200 | 34113 ft | 390 kts | 241° |
| 2026-05-04 12:31 | 42.19630 | 140.80769 | 34288 ft | 408 kts | 241° |
| 2026-05-04 12:31 | 42.16773 | 140.73977 | 34457 ft | 424 kts | 243° |
| 2026-05-04 12:32 | 42.15355 | 140.70462 | 34692 ft | 428 kts | 243° |
| 2026-05-04 12:32 | 42.12567 | 140.63422 | 34994 ft | 428 kts | 244° |
| 2026-05-04 12:33 | 42.09437 | 140.56699 | 34991 ft | 426 kts | 229° |
| 2026-05-04 12:33 | 42.07132 | 140.54149 | 34995 ft | 433 kts | 216° |
| 2026-05-04 12:33 | 42.04452 | 140.52165 | 35000 ft | 435 kts | 210° |
| 2026-05-04 12:34 | 41.98870 | 140.49095 | 35000 ft | 438 kts | 201° |
| 2026-05-04 12:34 | 41.93006 | 140.46806 | 35001 ft | 439 kts | 199° |
| 2026-05-04 12:35 | 41.87129 | 140.44557 | 35001 ft | 439 kts | 199° |
| 2026-05-04 12:35 | 41.81268 | 140.42295 | 35001 ft | 439 kts | 199° |
| 2026-05-04 12:36 | 41.75401 | 140.40006 | 35001 ft | 438 kts | 199° |
| 2026-05-04 12:36 | 41.70545 | 140.38079 | 35001 ft | 438 kts | 200° |
| 2026-05-04 12:37 | 41.64706 | 140.35730 | 35001 ft | 438 kts | 199° |
| 2026-05-04 12:37 | 41.58683 | 140.34333 | 35001 ft | 445 kts | 182° |
| 2026-05-04 12:38 | 41.52471 | 140.34939 | 35003 ft | 447 kts | 178° |
| 2026-05-04 12:38 | 41.46271 | 140.35624 | 35002 ft | 447 kts | 179° |
| 2026-05-04 12:39 | 41.40098 | 140.36276 | 35002 ft | 447 kts | 179° |
| 2026-05-04 12:39 | 41.33887 | 140.36923 | 35002 ft | 447 kts | 179° |
| 2026-05-04 12:40 | 41.27679 | 140.37565 | 35002 ft | 447 kts | 179° |
| 2026-05-04 12:40 | 41.21392 | 140.38213 | 35003 ft | 461 kts | 179° |
| 2026-05-04 12:41 | 41.14873 | 140.38882 | 35004 ft | 477 kts | 179° |
| 2026-05-04 12:41 | 41.08139 | 140.39567 | 35005 ft | 492 kts | 179° |
| 2026-05-04 12:42 | 41.01249 | 140.40263 | 35004 ft | 495 kts | 179° |
| 2026-05-04 12:42 | 40.94391 | 140.40949 | 35004 ft | 495 kts | 179° |
| 2026-05-04 12:43 | 40.87517 | 140.41632 | 35003 ft | 494 kts | 179° |
| 2026-05-04 12:43 | 40.80663 | 140.42303 | 35003 ft | 494 kts | 179° |
| 2026-05-04 12:44 | 40.73799 | 140.42961 | 35002 ft | 494 kts | 179° |
| 2026-05-04 12:44 | 40.66936 | 140.43600 | 35002 ft | 494 kts | 179° |